Time;durP1;ratioP1;P1;durP2;ratioP2;P2;SDS_P1;SDS_P2;PMS_P1;PMS_P2;Temp;Humidity;BMP_temperature;BMP_pressure;BME280_temperature;BME280_humidity;BME280_pressure;Samples;Min_cycle;Max_cycle;Signal;HPM_P1;HPM_P2
2022/09/13 00:00:54;;;;;;;6.82;2.63;;;;;;;15.24;81.05;92575.41;4997394;28;20495;-75
2022/09/13 00:03:20;;;;;;;4.93;2.40;;;;;;;15.22;80.89;92578.38;5015112;28;20026;-76
2022/09/13 00:05:46;;;;;;;5.55;2.30;;;;;;;15.18;80.99;92572.19;5014800;28;20037;-75
2022/09/13 00:08:12;;;;;;;6.43;2.30;;;;;;;15.18;81.37;92572.94;5014935;28;20030;-76
2022/09/13 00:10:40;;;;;;;4.38;2.30;;;;;;;15.17;81.45;92576.66;5009890;28;20070;-75
2022/09/13 00:13:07;;;;;;;4.55;2.50;;;;;;;15.13;80.94;92575.75;5016691;28;20033;-75
2022/09/13 00:15:35;;;;;;;4.95;2.60;;;;;;;15.12;81.67;92590.00;5034627;28;20542;-76
2022/09/13 00:18:01;;;;;;;5.20;2.42;;;;;;;15.11;81.24;92582.44;5033527;28;20030;-75
2022/09/13 00:20:26;;;;;;;6.20;2.55;;;;;;;15.12;81.43;92594.50;5034404;28;20395;-76
2022/09/13 00:22:52;;;;;;;5.85;2.40;;;;;;;15.12;81.52;92590.00;5016919;28;20037;-75
2022/09/13 00:25:18;;;;;;;4.65;2.30;;;;;;;15.11;81.75;92590.34;5034424;28;20032;-75
2022/09/13 00:27:44;;;;;;;5.22;2.35;;;;;;;15.07;81.66;92595.44;5016544;28;20427;-76
2022/09/13 00:30:11;;;;;;;5.22;2.42;;;;;;;15.02;81.91;92584.28;5016378;28;20044;-76
2022/09/13 00:32:37;;;;;;;7.90;2.33;;;;;;;14.98;82.24;92586.75;4996696;28;20029;-75
2022/09/13 00:35:04;;;;;;;4.75;2.70;;;;;;;14.96;82.31;92592.34;5015034;28;20032;-76
2022/09/13 00:37:32;;;;;;;4.10;2.38;;;;;;;14.97;82.10;92593.09;5014364;28;20030;-75
2022/09/13 00:39:58;;;;;;;5.13;2.53;;;;;;;14.96;82.48;92596.84;5013243;28;20076;-76
2022/09/13 00:42:28;;;;;;;7.35;2.72;;;;;;;14.94;82.35;92594.50;4997371;28;20045;-75
2022/09/13 00:44:59;;;;;;;4.97;2.55;;;;;;;14.93;82.46;92589.56;5014510;28;20125;-75
2022/09/13 00:47:41;;;;;;;5.53;2.70;;;;;;;14.92;82.69;92585.34;4996648;28;20093;-76
2022/09/13 00:50:10;;;;;;;4.45;2.33;;;;;;;14.91;82.47;92586.47;5013716;28;20087;-76
2022/09/13 00:52:39;;;;;;;7.75;2.72;;;;;;;14.90;81.79;92590.16;5023081;28;20037;-76
2022/09/13 00:55:20;;;;;;;8.95;2.80;;;;;;;14.88;81.71;92581.78;5034052;28;20034;-76
2022/09/13 00:57:46;;;;;;;7.28;2.63;;;;;;;14.89;81.63;92578.09;5032434;28;20030;-76
2022/09/13 01:00:15;;;;;;;4.95;2.50;;;;;;;14.87;82.08;92572.34;5033737;28;20533;-76
2022/09/13 01:02:51;;;;;;;4.28;2.50;;;;;;;14.85;82.62;92572.66;5033685;28;20037;-76
2022/09/13 01:05:21;;;;;;;4.05;2.38;;;;;;;14.83;83.04;92581.94;5016001;28;20407;-75
2022/09/13 01:07:47;;;;;;;5.00;2.70;;;;;;;14.82;83.84;92575.91;5015773;28;20492;-75
2022/09/13 01:10:13;;;;;;;8.18;2.72;;;;;;;14.81;83.42;92581.47;5032384;28;20033;-76
2022/09/13 01:12:48;;;;;;;7.75;2.60;;;;;;;14.84;83.51;92580.84;5028637;28;20427;-75
2022/09/13 01:15:14;;;;;;;4.78;2.47;;;;;;;14.85;83.24;92579.78;5025123;28;20045;-76
2022/09/13 01:17:42;;;;;;;5.38;2.55;;;;;;;14.80;83.35;92585.22;5015220;28;20033;-75
2022/09/13 01:20:10;;;;;;;7.20;2.47;;;;;;;14.77;82.91;92579.47;5032924;28;20178;-75
2022/09/13 01:22:57;;;;;;;4.95;3.13;;;;;;;14.75;83.14;92573.75;5028603;28;20060;-76
2022/09/13 01:25:44;;;;;;;4.65;2.70;;;;;;;14.70;84.12;92573.91;5027564;28;20037;-75
2022/09/13 01:28:26;;;;;;;5.50;2.70;;;;;;;14.66;84.35;92572.97;5033211;28;20123;-76
2022/09/13 01:31:04;;;;;;;6.00;2.60;;;;;;;14.68;84.38;92565.53;5033073;28;20037;-75
2022/09/13 01:33:40;;;;;;;4.50;2.65;;;;;;;14.66;85.17;92562.41;5016519;28;20045;-75
2022/09/13 01:36:31;;;;;;;7.18;2.90;;;;;;;14.63;84.99;92563.00;5013525;28;20036;-75
2022/09/13 01:38:57;;;;;;;4.57;2.50;;;;;;;14.61;85.40;92559.16;5028601;28;20404;-76
2022/09/13 01:41:56;;;;;;;5.05;2.92;;;;;;;14.60;85.36;92563.66;4995873;28;20025;-75
2022/09/13 01:44:45;;;;;;;6.45;2.90;;;;;;;14.63;85.26;92551.72;5030031;28;20488;-76
2022/09/13 01:47:49;;;;;;;5.97;2.72;;;;;;;14.58;85.02;92550.78;5033121;28;20091;-75
2022/09/13 01:50:15;;;;;;;5.68;2.70;;;;;;;14.56;85.65;92554.81;5031843;28;20128;-76
2022/09/13 01:52:46;;;;;;;12.70;3.08;;;;;;;14.51;85.98;92554.94;5031789;28;20063;-75
2022/09/13 01:55:47;;;;;;;7.00;2.70;;;;;;;14.51;85.19;92554.94;5031796;28;20040;-76
2022/09/13 01:58:36;;;;;;;6.30;2.60;;;;;;;14.51;86.46;92549.66;5031269;28;20033;-76
2022/09/13 02:01:17;;;;;;;5.15;2.78;;;;;;;14.52;86.33;92554.63;5030420;28;20037;-75
2022/09/13 02:03:52;;;;;;;5.32;2.70;;;;;;;14.51;85.70;92554.94;5031869;28;20462;-76
2022/09/13 02:06:22;;;;;;;4.80;2.80;;;;;;;14.47;86.42;92554.75;5032780;28;20052;-75
2022/09/13 02:08:59;;;;;;;5.35;2.80;;;;;;;14.48;86.64;92547.66;5032487;28;20087;-75
2022/09/13 02:11:25;;;;;;;5.55;2.60;;;;;;;14.47;86.62;92549.50;5040068;28;20256;-75
2022/09/13 02:14:01;;;;;;;6.85;2.60;;;;;;;14.44;86.82;92550.13;5034774;28;20111;-76
2022/09/13 02:16:32;;;;;;;5.97;2.70;;;;;;;14.42;87.14;92546.25;5034616;28;20033;-75
2022/09/13 02:19:06;;;;;;;7.47;3.40;;;;;;;14.41;87.24;92540.22;5041578;28;20048;-76
2022/09/13 02:21:38;;;;;;;4.75;2.58;;;;;;;14.40;86.89;92536.00;5033408;28;20487;-75
2022/09/13 02:24:12;;;;;;;6.65;2.80;;;;;;;14.38;87.54;92541.56;5014470;28;20037;-75
2022/09/13 02:26:40;;;;;;;6.20;2.65;;;;;;;14.37;87.17;92540.03;5039830;28;20021;-75
2022/09/13 02:29:11;;;;;;;5.60;2.78;;;;;;;14.35;88.06;92526.41;5034943;28;20033;-75
2022/09/13 02:31:44;;;;;;;5.75;2.97;;;;;;;14.36;88.08;92525.34;5034597;28;20116;-76
2022/09/13 02:34:17;;;;;;;6.10;2.80;;;;;;;14.36;87.97;92525.34;5034573;28;20037;-76
2022/09/13 02:36:45;;;;;;;5.90;2.88;;;;;;;14.38;87.91;92525.00;5033986;28;20033;-76
2022/09/13 02:39:14;;;;;;;9.77;3.03;;;;;;;14.36;88.22;92522.69;5034638;28;20032;-76
2022/09/13 02:41:53;;;;;;;5.80;2.70;;;;;;;14.34;88.27;92524.88;5051804;28;20040;-76
2022/09/13 02:44:30;;;;;;;5.32;2.95;;;;;;;14.35;88.29;92521.13;5034039;28;20040;-75
2022/09/13 02:47:06;;;;;;;4.90;2.90;;;;;;;14.33;88.50;92525.94;5052140;28;20037;-75
2022/09/13 02:49:32;;;;;;;7.07;3.10;;;;;;;14.32;88.31;92521.75;5034016;28;20037;-75
2022/09/13 02:52:08;;;;;;;8.60;3.08;;;;;;;14.32;88.47;92526.22;5052128;28;20497;-75
2022/09/13 02:55:17;;;;;;;5.10;2.90;;;;;;;14.32;87.83;92524.41;5051680;28;20116;-75
2022/09/13 02:58:06;;;;;;;4.45;2.60;;;;;;;14.34;87.73;92518.81;4994770;28;20479;-75
2022/09/13 03:00:31;;;;;;;6.40;2.85;;;;;;;14.34;87.26;92514.34;5023481;28;20034;-75
2022/09/13 03:03:01;;;;;;;7.15;2.75;;;;;;;14.34;87.20;92516.16;5048723;28;20039;-75
2022/09/13 03:05:27;;;;;;;7.45;2.90;;;;;;;14.34;86.64;92516.16;5052167;28;20036;-75
2022/09/13 03:07:53;;;;;;;4.68;2.85;;;;;;;14.34;87.53;92518.81;5051462;28;20099;-76
2022/09/13 03:10:22;;;;;;;5.93;2.70;;;;;;;14.32;86.91;92511.22;5033800;28;20487;-75
2022/09/13 03:13:20;;;;;;;6.65;3.10;;;;;;;14.31;87.59;92509.66;5051652;28;20139;-75
2022/09/13 03:16:42;;;;;;;5.95;3.20;;;;;;;14.31;87.84;92509.66;5037926;28;20056;-75
2022/09/13 03:19:25;;;;;;;5.82;2.88;;;;;;;14.30;87.68;92496.81;4958523;28;20039;-75
2022/09/13 03:22:24;;;;;;;7.25;2.75;;;;;;;14.28;87.60;92499.75;5014360;28;20048;-75
2022/09/13 03:25:18;;;;;;;5.70;3.10;;;;;;;14.25;87.97;92495.13;5014815;28;20045;-75
2022/09/13 03:28:09;;;;;;;6.85;2.90;;;;;;;14.21;88.29;92499.44;5016378;28;20444;-78
2022/09/13 03:30:40;;;;;;;5.05;2.75;;;;;;;14.22;88.96;92498.34;5017657;28;20546;-75
2022/09/13 03:33:17;;;;;;;6.57;3.15;;;;;;;14.20;89.08;92497.88;5014572;28;20036;-75
2022/09/13 03:35:56;;;;;;;5.90;3.13;;;;;;;14.18;89.16;92502.66;5014187;28;20038;-75
2022/09/13 03:38:41;;;;;;;5.50;2.88;;;;;;;14.17;89.20;92490.59;5017576;28;20037;-75
2022/09/13 03:41:12;;;;;;;7.03;3.00;;;;;;;14.16;89.02;92496.94;5035625;28;20555;-75
2022/09/13 03:43:56;;;;;;;6.75;3.08;;;;;;;14.18;88.84;92499.28;5017682;28;20037;-75
2022/09/13 03:46:36;;;;;;;6.53;3.33;;;;;;;14.17;88.73;92501.13;5034124;28;20026;-75
2022/09/13 03:49:07;;;;;;;6.28;3.30;;;;;;;14.14;88.89;92504.38;5017455;28;20030;-75
2022/09/13 03:51:34;;;;;;;10.18;3.30;;;;;;;14.11;88.84;92497.84;5034943;28;20111;-75
2022/09/13 03:54:03;;;;;;;5.07;3.05;;;;;;;14.12;88.87;92501.28;5035171;28;20052;-75
2022/09/13 03:56:29;;;;;;;6.47;3.10;;;;;;;14.11;89.46;92499.72;5035163;28;20451;-75
2022/09/13 03:58:55;;;;;;;9.52;3.38;;;;;;;14.10;89.09;92503.44;5035666;28;20026;-75
2022/09/13 04:01:22;;;;;;;6.35;3.35;;;;;;;14.10;88.79;92501.59;5026571;28;20033;-75
2022/09/13 04:03:49;;;;;;;5.93;3.22;;;;;;;14.11;89.25;92502.34;5003959;28;20069;-73
2022/09/13 04:06:15;;;;;;;9.00;3.67;;;;;;;14.09;89.24;92489.50;5053652;28;20613;-74
2022/09/13 04:08:40;;;;;;;7.18;3.53;;;;;;;14.10;90.03;92492.91;5026847;28;20212;-75
2022/09/13 04:11:08;;;;;;;7.75;3.50;;;;;;;14.04;90.18;92494.13;5031664;28;20108;-75
2022/09/13 04:13:35;;;;;;;11.65;3.60;;;;;;;14.01;90.09;92490.25;5024807;28;20041;-75
2022/09/13 04:16:02;;;;;;;8.13;3.47;;;;;;;13.98;90.17;92485.59;5033999;28;20073;-75
2022/09/13 04:18:28;;;;;;;10.93;3.95;;;;;;;13.95;90.21;92492.25;5034744;28;20033;-77
2022/09/13 04:20:55;;;;;;;10.35;3.67;;;;;;;13.95;90.02;92491.47;5004083;28;20093;-75
2022/09/13 04:23:22;;;;;;;13.48;3.55;;;;;;;13.93;90.20;92493.66;5032985;28;20033;-75
2022/09/13 04:25:50;;;;;;;8.05;3.65;;;;;;;13.93;90.03;92488.38;5015729;28;20502;-75
2022/09/13 04:28:17;;;;;;;7.75;3.88;;;;;;;13.93;90.28;92491.78;5016286;28;20048;-75
2022/09/13 04:30:44;;;;;;;10.40;4.10;;;;;;;13.95;90.88;92480.97;5016254;28;20037;-74
2022/09/13 04:33:09;;;;;;;6.63;3.72;;;;;;;13.93;91.46;92489.16;5000714;28;20033;-75
2022/09/13 04:35:35;;;;;;;6.60;3.88;;;;;;;13.92;91.34;92487.63;5032477;28;20029;-75
2022/09/13 04:38:01;;;;;;;8.15;3.80;;;;;;;13.92;91.20;92484.22;5033779;28;20037;-76
2022/09/13 04:40:26;;;;;;;9.70;4.00;;;;;;;13.92;91.26;92492.88;5016219;28;20033;-75
2022/09/13 04:42:52;;;;;;;9.43;3.95;;;;;;;13.91;91.91;92480.78;5000076;28;20507;-75
2022/09/13 04:45:17;;;;;;;8.75;4.00;;;;;;;13.87;91.33;92495.66;5034039;28;20060;-75
2022/09/13 04:47:43;;;;;;;8.23;3.53;;;;;;;13.84;91.61;92500.75;5014066;28;20029;-75
2022/09/13 04:50:08;;;;;;;7.72;3.95;;;;;;;13.82;92.09;92498.41;5034867;28;20040;-75
2022/09/13 04:52:34;;;;;;;7.95;3.88;;;;;;;13.83;92.06;92505.25;5033871;28;20402;-75
2022/09/13 04:55:00;;;;;;;8.45;3.80;;;;;;;13.82;92.32;92508.94;4983580;28;20084;-75
2022/09/13 04:57:27;;;;;;;7.85;3.80;;;;;;;13.83;92.97;92507.09;5033471;28;20057;-75
2022/09/13 04:59:53;;;;;;;9.55;3.83;;;;;;;13.82;92.98;92510.78;5028703;28;20046;-75
2022/09/13 05:02:18;;;;;;;9.63;3.92;;;;;;;13.80;93.69;92511.09;5013640;28;20088;-76
2022/09/13 05:04:44;;;;;;;11.10;4.40;;;;;;;13.77;93.64;92501.19;5008280;28;20084;-77
2022/09/13 05:07:10;;;;;;;8.27;3.63;;;;;;;13.78;93.15;92496.69;5014935;28;20044;-77
2022/09/13 05:09:35;;;;;;;13.50;4.70;;;;;;;13.78;93.40;92497.50;5033052;28;20034;-75
2022/09/13 05:12:01;;;;;;;8.13;3.65;;;;;;;13.78;92.63;92497.50;5034255;28;20053;-76
2022/09/13 05:14:27;;;;;;;7.25;3.88;;;;;;;13.80;92.98;92494.53;5018888;28;20605;-76
2022/09/13 05:16:52;;;;;;;11.07;4.00;;;;;;;13.80;93.31;92500.56;5027623;28;20380;-75
2022/09/13 05:19:18;;;;;;;10.35;4.70;;;;;;;13.80;93.08;92500.56;5051363;28;20572;-77
2022/09/13 05:21:43;;;;;;;7.82;4.10;;;;;;;13.84;93.26;92506.00;5033859;28;20128;-76
2022/09/13 05:24:09;;;;;;;11.65;3.88;;;;;;;13.92;93.33;92506.03;5033470;28;20044;-77
2022/09/13 05:26:35;;;;;;;11.85;4.10;;;;;;;14.00;92.81;92495.81;5025175;28;20034;-75
2022/09/13 05:29:00;;;;;;;10.07;3.60;;;;;;;14.04;92.73;92497.53;5008042;28;20037;-76
2022/09/13 05:31:35;;;;;;;8.10;3.50;;;;;;;14.11;92.40;92494.47;5014635;28;20041;-76
2022/09/13 05:34:05;;;;;;;6.55;3.50;;;;;;;14.20;92.07;92497.88;5026540;28;20089;-76
2022/09/13 05:36:31;;;;;;;12.38;4.10;;;;;;;14.29;91.84;92497.88;5014947;28;20067;-76
2022/09/13 05:38:59;;;;;;;6.38;3.78;;;;;;;14.40;91.13;92509.69;5006082;28;20030;-76
2022/09/13 05:41:25;;;;;;;10.75;4.30;;;;;;;14.51;90.42;92500.38;4991173;28;20037;-77
2022/09/13 05:43:51;;;;;;;7.57;4.15;;;;;;;14.63;90.38;92499.03;5012261;28;20090;-76
2022/09/13 05:46:18;;;;;;;10.57;4.25;;;;;;;14.74;89.82;92501.03;5024389;28;20065;-75
2022/09/13 05:48:44;;;;;;;10.30;4.30;;;;;;;14.87;89.26;92503.81;4992394;28;20049;-76
2022/09/13 05:51:12;;;;;;;19.20;4.00;;;;;;;15.23;88.33;92494.78;5026698;28;20045;-76
2022/09/13 05:53:40;;;;;;;14.50;4.72;;;;;;;16.23;85.03;92488.16;4998871;28;20025;-77
2022/09/13 05:56:11;;;;;;;7.40;3.92;;;;;;;17.30;81.46;92480.59;5032629;28;20278;-76
2022/09/13 05:58:45;;;;;;;7.93;3.40;;;;;;;18.33;76.11;92479.69;5032392;28;20040;-77
2022/09/13 06:01:11;;;;;;;5.55;3.10;;;;;;;19.24;71.58;92465.91;5008118;28;20046;-77
2022/09/13 06:03:37;;;;;;;6.28;3.17;;;;;;;19.90;68.00;92458.41;5011985;28;20177;-76
2022/09/13 06:06:04;;;;;;;5.55;3.00;;;;;;;20.52;66.02;92469.28;5012693;28;20058;-77
2022/09/13 06:08:31;;;;;;;9.48;3.50;;;;;;;21.14;63.78;92466.72;5032057;28;20033;-77
2022/09/13 06:11:02;;;;;;;5.35;2.60;;;;;;;21.71;61.19;92465.09;5042101;28;20053;-77
2022/09/13 06:13:29;;;;;;;8.23;2.93;;;;;;;22.31;59.97;92469.06;5052747;28;20497;-78
2022/09/13 06:15:57;;;;;;;3.97;2.28;;;;;;;22.95;51.90;92472.56;5052977;28;20283;-77
2022/09/13 06:18:23;;;;;;;4.55;2.40;;;;;;;23.41;52.75;92461.63;5052995;28;20128;-77
2022/09/13 06:20:49;;;;;;;8.82;2.50;;;;;;;23.79;51.96;92475.75;5035668;28;20090;-77
2022/09/13 06:23:15;;;;;;;7.07;2.22;;;;;;;24.23;52.00;92472.28;5052783;28;20032;-78
2022/09/13 06:25:42;;;;;;;6.35;2.13;;;;;;;24.48;50.54;92472.47;5034386;28;20044;-77
2022/09/13 06:28:08;;;;;;;5.32;2.13;;;;;;;24.38;50.77;92467.78;5016669;28;20427;-77
2022/09/13 06:30:35;;;;;;;8.23;2.30;;;;;;;24.98;51.21;92468.53;5054062;28;20060;-78
2022/09/13 06:33:01;;;;;;;3.65;2.00;;;;;;;25.46;48.72;92465.63;5053924;28;20472;-78
2022/09/13 06:35:26;;;;;;;4.60;2.10;;;;;;;25.30;47.63;92468.66;5038676;28;20048;-78
2022/09/13 06:37:58;;;;;;;5.20;2.15;;;;;;;25.56;48.07;92467.56;5016839;28;20037;-79
2022/09/13 06:40:24;;;;;;;6.38;2.28;;;;;;;26.14;46.39;92469.16;5021251;28;20051;-78
2022/09/13 06:42:50;;;;;;;6.82;2.38;;;;;;;26.87;45.76;92459.09;5054445;28;20044;-78
2022/09/13 06:45:17;;;;;;;3.25;1.80;;;;;;;27.21;44.01;92459.38;5042561;28;20034;-78
2022/09/13 06:47:42;;;;;;;4.53;1.88;;;;;;;27.76;42.35;92439.84;5034138;28;20038;-79
2022/09/13 06:50:08;;;;;;;6.18;1.90;;;;;;;28.47;40.47;92436.97;5035187;28;20487;-78
2022/09/13 06:52:34;;;;;;;8.93;2.35;;;;;;;28.84;40.79;92434.31;5032147;28;20034;-79
2022/09/13 06:54:59;;;;;;;5.28;2.00;;;;;;;29.09;40.81;92440.56;5042641;28;20099;-79
2022/09/13 06:57:25;;;;;;;6.82;2.20;;;;;;;28.71;40.93;92448.66;5035028;28;20025;-79
2022/09/13 06:59:51;;;;;;;5.07;2.00;;;;;;;28.97;39.63;92439.91;5034646;28;20063;-77
2022/09/13 07:02:16;;;;;;;3.80;2.10;;;;;;;29.83;36.83;92436.09;5034530;28;20038;-79
2022/09/13 07:04:42;;;;;;;5.95;1.92;;;;;;;29.96;37.31;92433.59;5029623;28;20029;-79
2022/09/13 07:07:07;;;;;;;9.40;2.25;;;;;;;29.53;38.75;92433.47;5034615;28;20029;-79
2022/09/13 07:09:33;;;;;;;6.53;2.47;;;;;;;28.15;40.45;92433.41;5012654;28;20045;-79
2022/09/13 07:11:59;;;;;;;6.75;2.28;;;;;;;26.81;43.91;92447.97;5051031;28;20045;-78
2022/09/13 07:14:26;;;;;;;5.30;2.20;;;;;;;25.49;46.70;92446.88;5054078;28;20045;-79
2022/09/13 07:16:53;;;;;;;6.30;2.40;;;;;;;24.13;51.28;92443.56;5043778;28;20594;-78
2022/09/13 07:19:28;;;;;;;8.52;2.35;;;;;;;23.67;52.61;92449.28;5032061;28;20029;-77
2022/09/13 07:21:55;;;;;;;4.55;2.10;;;;;;;22.87;54.17;92452.25;5032216;28;20033;-77
2022/09/13 07:24:21;;;;;;;5.07;2.50;;;;;;;22.30;56.93;92457.63;5016217;28;20487;-78
2022/09/13 07:26:48;;;;;;;7.32;2.40;;;;;;;22.14;58.35;92449.00;5032127;28;20056;-78
2022/09/13 07:29:18;;;;;;;6.07;2.42;;;;;;;22.20;59.10;92453.66;5039202;28;20037;-78
2022/09/13 07:31:46;;;;;;;9.60;2.85;;;;;;;22.24;58.86;92448.38;5053469;28;20394;-78
2022/09/13 07:34:23;;;;;;;7.70;2.60;;;;;;;22.35;59.36;92448.53;5053693;28;20056;-78
2022/09/13 07:36:49;;;;;;;7.07;2.60;;;;;;;21.97;60.87;92450.25;5035580;28;20052;-78
2022/09/13 07:39:16;;;;;;;7.80;2.55;;;;;;;21.33;63.04;92449.94;5022675;28;20044;-78
2022/09/13 07:41:42;;;;;;;14.02;2.60;;;;;;;21.58;65.03;92453.06;5044430;28;20024;-77
2022/09/13 07:44:11;;;;;;;7.03;2.40;;;;;;;21.90;61.19;92460.81;5035131;28;20124;-78
2022/09/13 07:46:40;;;;;;;5.82;2.38;;;;;;;22.28;60.53;92459.13;5044026;28;20048;-78
2022/09/13 07:49:06;;;;;;;9.23;2.72;;;;;;;22.78;60.30;92459.75;5010027;28;20120;-78
2022/09/13 07:51:34;;;;;;;9.82;2.30;;;;;;;23.27;57.96;92464.94;5029384;28;20112;-77
2022/09/13 07:54:03;;;;;;;3.88;2.10;;;;;;;23.67;55.90;92470.66;5033377;28;20077;-77
2022/09/13 07:56:35;;;;;;;3.72;1.92;;;;;;;23.94;53.86;92462.53;5015530;28;20033;-77
2022/09/13 07:59:03;;;;;;;3.58;2.00;;;;;;;24.00;52.79;92469.03;5017399;28;20051;-78
2022/09/13 08:01:33;;;;;;;4.38;1.98;;;;;;;24.12;52.43;92473.34;5039024;28;20436;-78
2022/09/13 08:04:01;;;;;;;5.95;1.83;;;;;;;24.41;49.22;92479.66;5032503;28;20037;-78
2022/09/13 08:06:28;;;;;;;5.82;2.33;;;;;;;24.58;52.47;92473.66;5049825;28;20052;-78
2022/09/13 08:08:55;;;;;;;7.32;2.40;;;;;;;24.03;54.38;92477.09;5055550;28;20037;-78
2022/09/13 08:11:27;;;;;;;6.95;2.38;;;;;;;23.48;56.87;92485.75;5019253;28;20466;-78
2022/09/13 08:13:53;;;;;;;8.20;2.42;;;;;;;22.99;58.26;92488.59;5040327;28;20575;-78
2022/09/13 08:16:21;;;;;;;10.45;2.78;;;;;;;22.58;59.71;92499.91;5035899;28;20108;-78
2022/09/13 08:18:51;;;;;;;5.60;2.80;;;;;;;22.15;61.53;92507.25;5036421;28;20126;-78
2022/09/13 08:21:18;;;;;;;4.70;2.00;;;;;;;22.42;59.88;92499.31;5031962;28;20041;-78
2022/09/13 08:23:44;;;;;;;5.60;2.10;;;;;;;22.69;56.81;92493.97;5036048;28;20037;-76
2022/09/13 08:26:10;;;;;;;5.57;2.53;;;;;;;22.22;60.87;92499.41;5017574;28;20136;-77
2022/09/13 08:28:39;;;;;;;6.45;2.30;;;;;;;21.89;62.26;92502.69;5016283;28;20064;-77
2022/09/13 08:31:14;;;;;;;8.05;2.50;;;;;;;21.28;62.11;92506.91;5018369;28;20124;-77
2022/09/13 08:33:46;;;;;;;6.70;2.55;;;;;;;21.27;62.79;92501.94;5036037;28;20049;-76
2022/09/13 08:36:11;;;;;;;4.20;2.40;;;;;;;21.49;61.30;92503.13;5035794;28;20395;-77
2022/09/13 08:38:37;;;;;;;6.50;2.15;;;;;;;22.01;61.11;92505.16;5027618;28;20388;-77
2022/09/13 08:41:20;;;;;;;6.93;1.95;;;;;;;22.13;59.41;92506.09;5035525;28;20472;-77
2022/09/13 08:43:50;;;;;;;6.18;2.20;;;;;;;22.40;60.08;92504.22;5028979;28;20490;-78
2022/09/13 08:46:27;;;;;;;5.72;2.22;;;;;;;22.64;58.29;92509.16;5035682;28;20041;-78
2022/09/13 08:48:59;;;;;;;5.03;2.17;;;;;;;22.55;55.40;92516.63;5031424;28;20033;-77
2022/09/13 08:51:36;;;;;;;9.18;2.50;;;;;;;22.51;58.42;92515.06;5017943;28;20556;-77
2022/09/13 08:54:02;;;;;;;9.00;2.47;;;;;;;22.27;60.57;92505.56;5028836;28;20037;-77
2022/09/13 08:56:33;;;;;;;7.35;2.45;;;;;;;22.01;60.81;92499.06;5030761;28;20450;-77
2022/09/13 08:59:18;;;;;;;11.68;2.53;;;;;;;21.77;60.60;92506.28;5028907;28;20033;-77
2022/09/13 09:01:49;;;;;;;5.80;2.22;;;;;;;21.71;60.29;92505.03;5033193;28;20406;-77
2022/09/13 09:04:28;;;;;;;5.43;2.22;;;;;;;21.76;60.58;92510.06;5041719;28;20487;-77
2022/09/13 09:07:10;;;;;;;4.68;2.63;;;;;;;21.75;60.29;92503.22;5000395;28;20042;-77
2022/09/13 09:09:51;;;;;;;5.57;2.20;;;;;;;21.92;60.73;92501.94;4990382;28;20400;-77
2022/09/13 09:12:29;;;;;;;9.23;2.20;;;;;;;22.15;60.03;92509.16;5028551;28;20474;-77
2022/09/13 09:15:03;;;;;;;4.15;2.15;;;;;;;22.11;59.04;92508.34;5036022;28;20033;-75
2022/09/13 09:17:59;;;;;;;6.07;2.17;;;;;;;22.11;58.59;92509.13;5036040;28;20510;-75
2022/09/13 09:20:38;;;;;;;5.28;2.40;;;;;;;21.80;58.93;92516.22;5010308;28;20045;-75
2022/09/13 09:23:23;;;;;;;6.32;2.55;;;;;;;21.79;60.75;92514.69;5019941;28;20368;-75
2022/09/13 09:25:54;;;;;;;6.05;2.22;;;;;;;22.02;60.54;92516.56;5028078;28;20025;-75
2022/09/13 09:28:19;;;;;;;6.53;2.40;;;;;;;22.16;59.99;92522.13;5023106;28;20115;-75
2022/09/13 09:30:55;;;;;;;8.82;2.40;;;;;;;22.43;60.36;92519.53;5030523;28;20045;-74
2022/09/13 09:33:32;;;;;;;4.90;2.20;;;;;;;22.42;58.93;92518.72;5052662;28;20041;-75
2022/09/13 09:36:17;;;;;;;3.67;2.05;;;;;;;22.86;59.26;92530.78;5053119;28;20119;-75
2022/09/13 09:38:43;;;;;;;3.83;2.20;;;;;;;23.25;55.88;92530.53;5034418;28;20055;-75
2022/09/13 09:41:25;;;;;;;5.20;2.15;;;;;;;23.21;57.54;92521.69;5023321;28;20045;-75
2022/09/13 09:43:57;;;;;;;5.10;2.45;;;;;;;22.88;57.41;92523.19;5034159;28;20395;-76
2022/09/13 09:46:29;;;;;;;6.88;2.50;;;;;;;22.85;58.47;92523.91;5032620;28;20038;-75
2022/09/13 09:50:07;;;;;;;6.20;2.30;;;;;;;23.15;58.10;92525.84;5031913;28;20289;-75
2022/09/13 09:51:51;;;;;;;7.55;2.40;;;;;;;23.00;56.84;92520.31;5015220;28;20041;-75
2022/09/13 09:54:18;;;;;;;6.47;2.15;;;;;;;22.79;58.82;92522.69;5015051;28;20033;-75
2022/09/13 09:56:53;;;;;;;3.97;2.10;;;;;;;22.49;58.98;92522.63;5007745;28;20132;-75
2022/09/13 09:59:32;;;;;;;4.55;2.38;;;;;;;22.68;58.14;92524.44;5031381;28;20526;-75
2022/09/13 10:02:00;;;;;;;3.88;2.17;;;;;;;22.85;57.76;92523.91;5020255;28;20418;-75
2022/09/13 10:04:27;;;;;;;5.38;2.60;;;;;;;22.60;57.52;92524.31;5032720;28;20063;-75
2022/09/13 10:07:21;;;;;;;4.13;2.22;;;;;;;23.03;57.09;92516.94;5032262;28;20647;-75
2022/09/13 10:09:57;;;;;;;8.25;2.35;;;;;;;23.33;54.19;92510.78;5031342;28;20104;-75
2022/09/13 10:12:28;;;;;;;5.53;2.30;;;;;;;23.38;54.13;92512.34;5022592;28;20061;-75
2022/09/13 10:15:12;;;;;;;6.82;2.38;;;;;;;23.55;54.83;92511.75;5031966;28;20025;-74
2022/09/13 10:17:38;;;;;;;5.22;2.40;;;;;;;23.52;54.51;92507.16;5030333;28;20116;-76
2022/09/13 10:20:12;;;;;;;5.75;2.60;;;;;;;23.20;54.47;92506.81;5032398;28;20121;-76
2022/09/13 10:22:38;;;;;;;5.72;2.30;;;;;;;23.26;53.80;92508.03;5031662;28;20033;-76
2022/09/13 10:25:26;;;;;;;6.18;2.20;;;;;;;23.22;55.05;92493.88;4999050;28;20029;-77
2022/09/13 10:27:57;;;;;;;4.85;2.70;;;;;;;22.87;54.47;92497.63;5032501;28;20461;-76
2022/09/13 10:30:38;;;;;;;5.90;2.60;;;;;;;22.81;54.59;92491.84;5033040;28;20041;-76
2022/09/13 10:33:07;;;;;;;4.65;2.50;;;;;;;22.83;55.43;92491.47;5001674;28;20092;-76
2022/09/13 10:35:32;;;;;;;4.60;2.63;;;;;;;22.72;54.36;92487.88;5017334;28;20040;-76
2022/09/13 10:37:58;;;;;;;6.53;2.83;;;;;;;22.80;54.24;92484.19;5026594;28;20037;-76
2022/09/13 10:40:29;;;;;;;6.05;2.30;;;;;;;22.95;54.10;92479.81;5033137;28;20458;-77
2022/09/13 10:43:00;;;;;;;4.95;2.60;;;;;;;23.04;54.94;92488.34;5031700;28;20040;-77
2022/09/13 10:45:29;;;;;;;5.28;2.53;;;;;;;23.38;53.21;92488.31;5024347;28;20120;-77
2022/09/13 10:48:25;;;;;;;4.70;2.80;;;;;;;23.23;54.21;92479.38;5031469;28;20395;-77
2022/09/13 10:51:11;;;;;;;4.85;2.20;;;;;;;23.32;54.31;92487.09;4993757;28;20050;-77
2022/09/13 10:53:40;;;;;;;6.03;2.67;;;;;;;23.27;53.87;92474.84;5011913;28;20472;-77
2022/09/13 10:56:19;;;;;;;5.10;2.60;;;;;;;22.98;54.24;92473.72;5049481;28;20052;-77
2022/09/13 10:58:45;;;;;;;5.82;2.80;;;;;;;23.16;53.37;92469.38;5034804;28;20032;-76
2022/09/13 11:01:39;;;;;;;5.38;2.80;;;;;;;22.96;53.68;92476.75;5029962;28;20037;-77
2022/09/13 11:04:20;;;;;;;4.90;2.78;;;;;;;23.15;53.84;92469.78;5004800;28;20041;-76
2022/09/13 11:06:46;;;;;;;6.13;3.00;;;;;;;23.33;53.52;92462.72;5024041;28;20037;-76
2022/09/13 11:09:27;;;;;;;5.78;2.97;;;;;;;23.44;51.24;92452.91;5037405;28;20052;-76
2022/09/13 11:12:21;;;;;;;8.75;2.97;;;;;;;23.66;52.59;92447.75;5030917;28;20475;-76
2022/09/13 11:14:59;;;;;;;5.00;2.90;;;;;;;23.63;52.77;92451.16;4992527;28;20086;-75
2022/09/13 11:18:06;;;;;;;6.32;2.90;;;;;;;23.98;54.30;92452.59;5012204;28;20045;-76
2022/09/13 11:20:50;;;;;;;4.25;2.28;;;;;;;24.01;53.27;92446.53;5003797;28;20056;-76
2022/09/13 11:24:07;;;;;;;4.78;2.78;;;;;;;23.76;52.71;92447.09;5015507;28;20454;-76
2022/09/13 11:26:41;;;;;;;6.25;2.90;;;;;;;24.02;53.03;92445.38;4995377;28;20046;-76
2022/09/13 11:29:27;;;;;;;5.28;2.70;;;;;;;23.87;54.04;92447.97;4992970;28;20443;-76
2022/09/13 11:32:12;;;;;;;7.82;2.70;;;;;;;23.84;52.00;92443.34;4973473;28;20049;-76
2022/09/13 11:35:16;;;;;;;5.35;2.50;;;;;;;24.03;53.21;92445.03;4994853;28;20026;-76
2022/09/13 11:38:07;;;;;;;6.80;2.78;;;;;;;24.11;52.58;92451.19;4982440;28;20100;-76
2022/09/13 11:41:27;;;;;;;6.20;2.83;;;;;;;24.18;52.30;92447.78;5014057;28;20046;-76
2022/09/13 11:44:29;;;;;;;4.63;2.58;;;;;;;24.03;52.63;92449.59;4986301;28;20121;-76
2022/09/13 11:47:29;;;;;;;6.18;2.45;;;;;;;24.10;52.62;92455.00;5001059;28;20388;-76
2022/09/13 11:50:21;;;;;;;9.07;2.97;;;;;;;23.59;52.26;92450.34;5007895;28;20030;-77
2022/09/13 11:53:28;;;;;;;4.35;2.20;;;;;;;23.78;53.26;92444.84;5009411;28;20041;-76
2022/09/13 11:56:05;;;;;;;9.32;2.80;;;;;;;23.64;52.49;92450.81;5008728;28;20026;-76
2022/09/13 11:58:55;;;;;;;5.50;2.30;;;;;;;23.70;55.01;92453.88;5008920;28;20061;-76